Time;durP1;ratioP1;P1;durP2;ratioP2;P2;SDS_P1;SDS_P2;PMS_P1;PMS_P2;Temp;Humidity;BMP_temperature;BMP_pressure;BME280_temperature;BME280_humidity;BME280_pressure;Samples;Min_cycle;Max_cycle;Signal;HPM_P1;HPM_P2
2021/01/12 00:02:20;;;;;;;18.00;5.10;;;;;;;3.06;75.23;99500.81;5054454;28;20304;-68
2021/01/12 00:04:47;;;;;;;6.63;5.22;;;;;;;2.98;75.91;99500.16;5054420;28;20209;-67
2021/01/12 00:07:14;;;;;;;8.25;4.88;;;;;;;2.99;75.63;99495.72;5054367;28;20229;-68
2021/01/12 00:09:40;;;;;;;7.68;5.22;;;;;;;2.97;75.92;99500.22;5054368;28;20205;-68
2021/01/12 00:12:08;;;;;;;6.80;5.80;;;;;;;3.06;75.90;99497.28;5054205;28;20198;-69
2021/01/12 00:14:34;;;;;;;8.82;5.57;;;;;;;3.02;75.93;99492.97;5053921;28;20201;-68
2021/01/12 00:17:03;;;;;;;8.23;4.70;;;;;;;2.90;76.11;99487.09;5054457;28;20194;-68
2021/01/12 00:19:30;;;;;;;9.43;5.22;;;;;;;2.85;76.97;99482.78;5054085;28;20287;-67
2021/01/12 00:21:57;;;;;;;9.15;4.55;;;;;;;2.94;76.31;99471.94;5054033;28;20278;-68
2021/01/12 00:24:23;;;;;;;7.88;5.20;;;;;;;3.04;76.10;99469.84;5054102;28;20202;-70
2021/01/12 00:27:05;;;;;;;8.10;4.30;;;;;;;2.97;76.32;99468.31;5053881;28;20210;-67
2021/01/12 00:29:33;;;;;;;11.38;5.75;;;;;;;2.83;76.73;99453.59;4973254;28;20650;-68
2021/01/12 00:32:00;;;;;;;6.82;4.32;;;;;;;3.00;76.47;99452.25;4973233;28;20200;-68
2021/01/12 00:34:26;;;;;;;8.15;4.95;;;;;;;3.01;75.76;99460.19;4973179;28;20205;-68
2021/01/12 00:36:53;;;;;;;8.77;5.40;;;;;;;3.05;76.13;99475.13;4973000;28;20204;-68
2021/01/12 00:39:21;;;;;;;11.68;6.43;;;;;;;2.98;75.94;99470.88;4972995;28;20217;-68
2021/01/12 00:41:48;;;;;;;8.32;4.95;;;;;;;3.13;75.32;99465.13;4972954;28;20741;-68
2021/01/12 00:44:14;;;;;;;10.50;5.88;;;;;;;3.15;75.02;99462.44;4972820;28;20204;-68
2021/01/12 00:46:44;;;;;;;5.43;3.65;;;;;;;3.18;74.96;99450.81;4973150;28;20235;-68
2021/01/12 00:49:11;;;;;;;7.55;4.53;;;;;;;3.04;75.50;99460.09;4973021;28;20210;-67
2021/01/12 00:51:39;;;;;;;11.35;5.95;;;;;;;3.25;74.63;99458.56;4973076;28;20203;-68
2021/01/12 00:54:07;;;;;;;9.00;5.00;;;;;;;3.05;75.46;99445.88;4972696;28;20267;-68
2021/01/12 00:56:33;;;;;;;9.43;4.63;;;;;;;2.99;75.88;99448.72;4972594;28;20215;-69
2021/01/12 00:58:59;;;;;;;7.97;4.88;;;;;;;3.03;75.74;99447.72;4972644;28;20266;-70
2021/01/12 01:01:26;;;;;;;7.15;4.70;;;;;;;2.82;76.54;99445.66;4972763;28;20222;-68
2021/01/12 01:03:53;;;;;;;14.43;7.80;;;;;;;3.05;76.06;99439.66;4972743;28;20338;-69
2021/01/12 01:06:20;;;;;;;12.45;4.60;;;;;;;3.08;76.12;99432.47;5003382;28;20219;-68
2021/01/12 01:08:46;;;;;;;11.40;4.93;;;;;;;3.21;75.61;99448.94;5053741;28;20306;-69
2021/01/12 01:11:12;;;;;;;11.40;4.35;;;;;;;3.07;75.73;99433.38;5053871;28;20303;-68
2021/01/12 01:13:38;;;;;;;8.25;4.13;;;;;;;3.12;76.02;99444.78;5053829;28;20224;-69
2021/01/12 01:16:05;;;;;;;6.20;4.10;;;;;;;3.08;76.34;99427.16;5053450;28;20542;-69
2021/01/12 01:18:31;;;;;;;9.88;5.30;;;;;;;3.02;76.56;99421.16;5053674;28;20198;-68
2021/01/12 01:20:59;;;;;;;8.60;3.75;;;;;;;3.17;76.28;99426.00;5053348;28;20213;-69
2021/01/12 01:23:25;;;;;;;12.27;5.78;;;;;;;3.25;75.98;99425.75;5053283;28;20559;-67
2021/01/12 01:25:51;;;;;;;8.82;5.20;;;;;;;3.27;76.14;99423.94;5052860;28;20265;-68
2021/01/12 01:28:19;;;;;;;7.47;3.85;;;;;;;3.19;76.36;99423.28;5053032;28;20274;-70
2021/01/12 01:30:45;;;;;;;6.55;4.40;;;;;;;3.25;76.61;99412.44;5052977;28;20292;-69
2021/01/12 01:33:11;;;;;;;5.00;3.95;;;;;;;3.24;76.63;99424.03;5052960;28;20231;-69
2021/01/12 01:35:38;;;;;;;11.32;5.28;;;;;;;3.06;77.67;99421.00;5052696;28;20243;-67
2021/01/12 01:38:05;;;;;;;6.43;4.57;;;;;;;3.17;77.63;99420.69;5053169;28;20612;-69
2021/01/12 01:40:31;;;;;;;9.90;5.20;;;;;;;3.12;78.27;99418.16;5052623;28;20224;-69
2021/01/12 01:42:57;;;;;;;6.80;4.20;;;;;;;3.16;79.37;99424.25;5052569;28;20238;-67
2021/01/12 01:45:24;;;;;;;12.07;5.93;;;;;;;3.12;80.54;99419.94;5052972;28;20296;-68
2021/01/12 01:47:52;;;;;;;9.27;4.80;;;;;;;2.97;82.36;99410.66;5053006;28;20672;-68
2021/01/12 01:50:20;;;;;;;8.13;5.55;;;;;;;2.89;83.65;99415.31;5052682;28;20257;-68
2021/01/12 01:52:50;;;;;;;7.25;4.72;;;;;;;2.95;83.58;99415.13;5052350;28;20189;-67
2021/01/12 01:55:18;;;;;;;7.68;4.68;;;;;;;2.91;82.89;99408.16;5052833;28;20592;-68
2021/01/12 01:57:44;;;;;;;11.57;5.95;;;;;;;2.67;84.38;99415.09;5052867;28;20235;-68
2021/01/12 02:00:12;;;;;;;11.80;6.00;;;;;;;2.66;84.73;99402.69;5052076;28;20301;-69
2021/01/12 02:02:49;;;;;;;15.57;5.85;;;;;;;2.62;85.66;99396.63;5052292;28;20192;-69
2021/01/12 02:05:15;;;;;;;11.85;5.45;;;;;;;2.56;86.47;99394.13;5052135;28;20254;-68
2021/01/12 02:07:43;;;;;;;7.10;5.35;;;;;;;2.52;87.54;99389.81;5052404;28;20303;-67
2021/01/12 02:10:13;;;;;;;8.90;5.40;;;;;;;2.38;88.89;99381.38;5052392;28;20186;-67
2021/01/12 02:12:47;;;;;;;14.52;7.05;;;;;;;2.35;89.46;99381.44;5052453;28;20193;-68
2021/01/12 02:15:18;;;;;;;9.30;5.55;;;;;;;2.36;89.71;99377.88;5051925;28;20280;-68
2021/01/12 02:17:46;;;;;;;8.75;6.13;;;;;;;2.46;90.04;99376.69;5052052;28;20197;-68
2021/01/12 02:20:14;;;;;;;9.40;5.10;;;;;;;2.43;89.23;99368.81;5051964;28;20201;-67
2021/01/12 02:22:43;;;;;;;7.82;5.10;;;;;;;2.48;89.55;99367.75;5052403;28;20190;-67
2021/01/12 02:25:12;;;;;;;9.48;5.72;;;;;;;2.57;88.72;99363.97;5052247;28;20194;-69
2021/01/12 02:27:38;;;;;;;9.25;4.88;;;;;;;2.56;88.88;99359.56;5051769;28;20280;-68
2021/01/12 02:30:05;;;;;;;8.57;5.57;;;;;;;2.69;87.24;99341.44;5051754;28;20268;-69
2021/01/12 02:32:32;;;;;;;9.70;4.97;;;;;;;2.64;87.38;99341.59;5052065;28;20650;-67
2021/01/12 02:35:00;;;;;;;10.60;6.05;;;;;;;2.74;87.25;99338.66;5052055;28;20209;-70
2021/01/12 02:37:27;;;;;;;9.65;5.68;;;;;;;2.74;87.50;99331.56;5050997;28;20190;-68
2021/01/12 02:39:56;;;;;;;8.73;5.60;;;;;;;2.70;87.34;99340.56;5051588;28;20291;-68
2021/01/12 02:42:23;;;;;;;11.05;6.25;;;;;;;2.56;88.44;99327.69;5051933;28;20267;-68
2021/01/12 02:44:49;;;;;;;12.00;5.70;;;;;;;2.60;88.99;99336.41;5052216;28;20255;-68
2021/01/12 02:47:16;;;;;;;7.80;4.80;;;;;;;2.66;89.14;99338.91;5051560;28;20212;-68
2021/01/12 02:49:43;;;;;;;12.05;5.32;;;;;;;2.59;90.43;99321.41;5051485;28;20269;-69
2021/01/12 02:52:13;;;;;;;8.52;5.32;;;;;;;2.55;90.90;99325.91;5051305;28;20212;-69
2021/01/12 02:54:39;;;;;;;8.15;5.30;;;;;;;2.62;91.88;99322.19;5051649;28;20332;-68
2021/01/12 02:57:05;;;;;;;12.50;6.57;;;;;;;2.54;92.37;99318.00;5051879;28;20757;-68
2021/01/12 02:59:32;;;;;;;12.43;4.97;;;;;;;2.65;92.64;99319.44;5051909;28;20226;-69
2021/01/12 03:01:59;;;;;;;9.45;6.15;;;;;;;2.56;93.33;99308.22;5051932;28;20312;-68
2021/01/12 03:04:25;;;;;;;10.48;6.50;;;;;;;2.52;94.54;99312.72;5052057;28;20220;-69
2021/01/12 03:06:51;;;;;;;11.00;5.43;;;;;;;2.56;93.59;99300.22;5051546;28;20280;-68
2021/01/12 03:09:17;;;;;;;8.98;4.70;;;;;;;2.47;95.09;99298.72;5051816;28;20205;-67
2021/01/12 03:11:43;;;;;;;9.68;6.15;;;;;;;2.62;94.50;99290.28;5051706;28;20280;-68
2021/01/12 03:14:09;;;;;;;7.72;5.90;;;;;;;2.50;94.82;99286.19;5051954;28;20663;-68
2021/01/12 03:16:36;;;;;;;9.98;5.78;;;;;;;2.58;96.34;99278.00;5051532;28;20241;-69
2021/01/12 03:19:03;;;;;;;7.93;5.40;;;;;;;2.60;96.01;99277.94;5051816;28;20236;-69
2021/01/12 03:21:29;;;;;;;8.82;6.43;;;;;;;2.62;95.03;99266.38;5051595;28;20231;-67
2021/01/12 03:23:55;;;;;;;11.30;6.15;;;;;;;2.54;94.91;99262.19;5051476;28;20187;-68
2021/01/12 03:26:22;;;;;;;12.15;5.35;;;;;;;2.44;95.42;99261.59;5051673;28;20304;-67
2021/01/12 03:28:49;;;;;;;10.95;6.35;;;;;;;2.51;95.82;99255.19;5051789;28;20666;-68
2021/01/12 03:31:15;;;;;;;9.77;6.10;;;;;;;2.49;95.65;99243.75;5051421;28;20248;-69
2021/01/12 03:33:42;;;;;;;10.30;5.30;;;;;;;2.42;95.58;99248.38;5051895;28;20629;-68
2021/01/12 03:36:09;;;;;;;9.68;4.28;;;;;;;2.45;95.50;99239.44;5051335;28;20209;-68
2021/01/12 03:38:35;;;;;;;9.40;5.43;;;;;;;2.54;94.94;99233.81;5051229;28;20197;-67
2021/01/12 03:41:02;;;;;;;8.88;5.53;;;;;;;2.62;93.43;99242.44;5051739;28;20304;-69
2021/01/12 03:43:28;;;;;;;11.70;5.65;;;;;;;2.61;93.84;99238.03;5051811;28;20205;-68
2021/01/12 03:45:54;;;;;;;6.88;4.90;;;;;;;2.57;93.03;99233.72;5051888;28;20345;-68
2021/01/12 03:48:20;;;;;;;11.70;7.05;;;;;;;2.54;93.24;99233.81;5051666;28;20331;-69
2021/01/12 03:50:47;;;;;;;7.22;4.63;;;;;;;2.62;93.25;99230.91;5054433;28;20233;-67
2021/01/12 03:53:15;;;;;;;9.30;5.65;;;;;;;2.62;92.74;99226.50;5054945;28;20284;-67
2021/01/12 03:55:41;;;;;;;6.55;5.25;;;;;;;2.67;92.56;99224.56;5055162;28;20209;-68
2021/01/12 03:58:07;;;;;;;11.65;6.65;;;;;;;2.58;93.41;99211.56;5054758;28;20193;-69
2021/01/12 04:00:34;;;;;;;5.05;4.55;;;;;;;2.57;93.90;99212.44;5054900;28;20193;-69
2021/01/12 04:03:00;;;;;;;10.10;5.45;;;;;;;2.69;92.91;99211.19;5054777;28;20296;-68
2021/01/12 04:05:27;;;;;;;12.00;6.50;;;;;;;2.69;93.31;99198.78;5054642;28;20215;-68
2021/01/12 04:07:55;;;;;;;8.20;4.50;;;;;;;2.53;94.39;99196.66;5054883;28;20576;-67
2021/01/12 04:10:21;;;;;;;11.65;6.05;;;;;;;2.66;94.40;99187.38;5054383;28;20209;-68
2021/01/12 04:12:47;;;;;;;9.00;5.25;;;;;;;2.74;93.39;99189.78;5054883;28;20186;-68
2021/01/12 04:15:14;;;;;;;9.15;6.15;;;;;;;2.74;93.13;99190.66;5054386;28;20190;-68
2021/01/12 04:17:40;;;;;;;6.63;4.45;;;;;;;2.81;93.32;99175.38;5054557;28;20209;-67
2021/01/12 04:20:07;;;;;;;11.32;6.00;;;;;;;2.83;93.13;99170.88;5054794;28;20185;-68
2021/01/12 04:22:35;;;;;;;7.53;4.95;;;;;;;2.92;92.37;99173.22;5054115;28;20221;-70
2021/01/12 04:25:02;;;;;;;11.13;6.35;;;;;;;2.71;93.53;99173.03;5054235;28;20203;-68
2021/01/12 04:27:28;;;;;;;8.20;5.00;;;;;;;2.61;94.65;99171.56;5054769;28;20701;-68
2021/01/12 04:29:54;;;;;;;10.00;4.72;;;;;;;2.81;94.20;99173.59;5054521;28;20209;-69
2021/01/12 04:32:23;;;;;;;11.35;5.63;;;;;;;2.80;93.84;99160.31;5053969;28;20186;-69
2021/01/12 04:34:50;;;;;;;8.13;4.93;;;;;;;2.66;94.29;99160.78;5054046;28;20206;-69
2021/01/12 04:37:16;;;;;;;7.45;5.43;;;;;;;2.71;94.56;99154.41;5054332;28;20211;-68
2021/01/12 04:39:42;;;;;;;8.98;5.30;;;;;;;2.83;94.14;99146.94;5053997;28;20197;-67
2021/01/12 04:42:09;;;;;;;10.68;5.75;;;;;;;2.77;94.48;99147.16;5053749;28;20304;-68
2021/01/12 04:44:35;;;;;;;7.90;4.80;;;;;;;2.82;94.44;99139.88;5054212;28;20288;-68
2021/01/12 04:47:02;;;;;;;8.52;6.20;;;;;;;2.81;94.54;99128.38;5053908;28;20280;-68
2021/01/12 04:49:28;;;;;;;14.35;6.47;;;;;;;2.77;94.68;99133.84;5053940;28;20261;-69
2021/01/12 04:51:55;;;;;;;8.20;5.50;;;;;;;2.84;94.54;99138.03;5054054;28;20205;-69
2021/01/12 04:54:26;;;;;;;7.20;5.80;;;;;;;2.75;94.86;99130.38;5054056;28;20216;-70
2021/01/12 04:56:55;;;;;;;8.93;4.55;;;;;;;2.72;95.98;99124.25;5053949;28;20667;-68
2021/01/12 04:59:31;;;;;;;9.23;5.25;;;;;;;2.81;95.36;99116.88;5053958;28;20193;-68
2021/01/12 05:01:58;;;;;;;10.20;6.47;;;;;;;2.88;94.55;99115.75;5052464;28;20209;-68
2021/01/12 05:04:24;;;;;;;20.98;8.20;;;;;;;2.72;95.66;99107.44;5053589;28;20625;-68
2021/01/12 05:06:52;;;;;;;12.18;6.00;;;;;;;2.76;95.71;99105.50;5053722;28;20189;-67
2021/01/12 05:09:22;;;;;;;8.82;6.13;;;;;;;2.84;96.65;99114.09;5053696;28;20212;-68
2021/01/12 05:11:49;;;;;;;8.65;6.70;;;;;;;2.78;95.70;99103.66;5053260;28;20186;-67
2021/01/12 05:14:17;;;;;;;10.77;6.90;;;;;;;2.89;95.67;99107.72;5053337;28;20209;-68
2021/01/12 05:16:46;;;;;;;8.57;6.70;;;;;;;2.92;94.21;99094.31;5053080;28;20234;-68
2021/01/12 05:19:19;;;;;;;11.52;6.70;;;;;;;2.99;93.88;99094.97;5053272;28;20209;-68
2021/01/12 05:21:46;;;;;;;8.63;5.50;;;;;;;2.78;94.05;99085.06;5053228;28;20213;-67
2021/01/12 05:24:16;;;;;;;10.15;5.80;;;;;;;2.82;94.56;99084.91;5053214;28;20209;-67
2021/01/12 05:26:46;;;;;;;7.78;5.35;;;;;;;2.88;94.93;99082.03;5053463;28;20214;-68
2021/01/12 05:29:12;;;;;;;10.38;5.45;;;;;;;3.00;92.61;99071.88;5052918;28;20219;-67
2021/01/12 05:31:39;;;;;;;9.30;6.00;;;;;;;2.98;93.50;99077.25;5053248;28;20190;-69
2021/01/12 05:34:12;;;;;;;12.60;5.03;;;;;;;3.02;93.19;99083.34;5053255;28;20213;-68
2021/01/12 05:36:49;;;;;;;10.00;6.30;;;;;;;2.88;93.40;99082.03;5052915;28;20196;-67
2021/01/12 05:39:17;;;;;;;8.40;6.60;;;;;;;2.77;94.92;99086.88;5052814;28;20192;-69
2021/01/12 05:41:48;;;;;;;9.50;4.95;;;;;;;2.77;95.53;99078.03;5052482;28;20225;-68
2021/01/12 05:44:24;;;;;;;7.05;5.00;;;;;;;2.67;96.09;99072.16;5052952;28;20304;-68
2021/01/12 05:46:52;;;;;;;8.00;5.35;;;;;;;2.68;97.05;99071.22;5052489;28;20557;-68
2021/01/12 05:49:21;;;;;;;6.82;3.78;;;;;;;2.70;96.83;99066.72;5052543;28;20215;-68
2021/01/12 05:51:49;;;;;;;9.77;4.53;;;;;;;2.77;96.03;99067.38;5052691;28;20664;-68
2021/01/12 05:54:31;;;;;;;7.82;5.72;;;;;;;2.64;95.38;99061.63;5052813;28;20300;-68
2021/01/12 05:57:00;;;;;;;7.47;4.63;;;;;;;2.65;96.89;99060.72;5052633;28;20291;-68
2021/01/12 05:59:32;;;;;;;9.40;5.72;;;;;;;2.67;95.57;99058.88;5052655;28;20185;-68
2021/01/12 06:01:59;;;;;;;7.10;4.85;;;;;;;2.72;95.92;99054.25;5052611;28;20236;-68
2021/01/12 06:04:27;;;;;;;6.40;5.22;;;;;;;2.62;95.74;99051.06;5051784;28;20186;-68
2021/01/12 06:06:54;;;;;;;4.43;3.88;;;;;;;2.53;96.70;99050.47;5052132;28;20209;-68
2021/01/12 06:09:29;;;;;;;5.97;4.03;;;;;;;2.59;97.17;99043.16;5052311;28;20532;-68
2021/01/12 06:11:57;;;;;;;12.98;4.85;;;;;;;2.58;97.41;99044.09;5052175;28;20196;-67
2021/01/12 06:14:26;;;;;;;11.77;4.80;;;;;;;2.59;97.15;99037.00;5052373;28;20206;-67
2021/01/12 06:16:56;;;;;;;6.60;4.13;;;;;;;2.50;96.88;99033.72;5051964;28;20644;-68
2021/01/12 06:19:25;;;;;;;6.03;4.18;;;;;;;2.50;97.28;99035.50;5052185;28;20289;-68
2021/01/12 06:22:25;;;;;;;7.55;4.25;;;;;;;2.59;97.10;99027.22;5051792;28;20599;-68
2021/01/12 06:25:08;;;;;;;6.13;3.88;;;;;;;2.54;96.64;99021.22;5052648;28;20217;-68
2021/01/12 06:27:35;;;;;;;6.72;4.35;;;;;;;2.57;97.43;99018.44;5052342;28;20193;-69
2021/01/12 06:30:04;;;;;;;7.13;4.20;;;;;;;2.56;97.67;99014.06;5051916;28;20271;-68
2021/01/12 06:32:32;;;;;;;6.50;3.75;;;;;;;2.50;97.54;99030.19;5052449;28;20196;-69
2021/01/12 06:35:04;;;;;;;4.65;3.83;;;;;;;2.52;97.95;99012.41;5052253;28;20596;-68
2021/01/12 06:37:36;;;;;;;4.00;3.67;;;;;;;2.56;97.33;99010.53;5051834;28;20194;-68
2021/01/12 06:40:07;;;;;;;6.53;4.03;;;;;;;2.40;97.43;99012.84;5051836;28;20224;-68
2021/01/12 06:42:34;;;;;;;6.60;4.18;;;;;;;2.54;97.74;99001.75;5051644;28;20217;-67
2021/01/12 06:45:00;;;;;;;4.78;4.10;;;;;;;2.66;96.40;99015.44;5051968;28;20636;-67
2021/01/12 06:47:33;;;;;;;4.63;3.13;;;;;;;2.73;95.22;99016.09;5051268;28;20185;-67
2021/01/12 06:50:06;;;;;;;4.95;3.47;;;;;;;2.61;96.31;99017.41;5050424;28;20236;-68
2021/01/12 06:52:41;;;;;;;4.13;3.08;;;;;;;2.69;95.82;99012.72;5051152;28;20201;-68
2021/01/12 06:55:10;;;;;;;4.28;3.10;;;;;;;2.75;95.69;99005.44;5052005;28;20217;-68
2021/01/12 06:57:43;;;;;;;3.45;2.78;;;;;;;2.66;95.52;99003.97;5051596;28;20601;-67
2021/01/12 07:00:11;;;;;;;8.00;2.97;;;;;;;2.72;95.98;98998.44;5051517;28;20240;-68
2021/01/12 07:06:38;;;;;;;3.17;2.60;;;;;;;2.84;95.62;99000.63;5027981;28;20217;-69
2021/01/12 07:09:06;;;;;;;6.18;2.85;;;;;;;2.80;95.03;98999.00;5042864;28;20197;-69
2021/01/12 07:11:33;;;;;;;4.55;3.67;;;;;;;2.56;95.18;98998.09;5051521;28;20206;-68
2021/01/12 07:14:00;;;;;;;5.55;3.22;;;;;;;2.48;96.40;98997.50;5051415;28;20243;-68
2021/01/12 07:16:26;;;;;;;4.80;4.40;;;;;;;2.62;96.63;98999.66;5051330;28;20189;-68
2021/01/12 07:19:05;;;;;;;4.47;3.40;;;;;;;2.46;96.80;98996.69;5051024;28;20216;-69
2021/01/12 09:00:11;;;;;;;2.22;1.90;;;;;;;2.41;98.64;98945.50;4907787;29;20233;-71
2021/01/12 09:19:54;;;;;;;2.45;1.70;;;;;;;2.63;96.60;98935.84;4924749;28;20203;-71
2021/01/12 09:26:16;;;;;;;2.20;2.00;;;;;;;2.76;98.27;98946.91;4970773;28;20272;-70
2021/01/12 09:41:55;;;;;;;1.48;1.30;;;;;;;2.82;95.66;98949.31;5031637;28;20754;-70
2021/01/12 09:45:19;;;;;;;1.95;0.85;;;;;;;2.70;96.81;98955.09;5046556;28;20201;-69
2021/01/12 09:48:27;;;;;;;3.55;1.80;;;;;;;2.61;98.03;98943.00;5049336;28;20205;-69
2021/01/12 10:08:25;;;;;;;1.58;1.45;;;;;;;2.97;97.50;98939.03;5026961;28;20197;-70
2021/01/12 10:30:46;;;;;;;1.95;0.95;;;;;;;3.13;96.37;98922.41;4880985;29;20207;-70
2021/01/12 11:03:13;;;;;;;;;;;;;;;;;;;;;
2021/01/12 11:09:08;;;;;;;1.20;1.00;;;;;;;3.42;98.61;98872.53;4938085;28;20213;-71
2021/01/12 11:30:45;;;;;;;;;;;;;;;;;;;;;
2021/01/12 11:50:20;;;;;;;1.10;1.00;;;;;;;3.58;98.84;98822.19;4875423;29;20205;-70
2021/01/12 12:07:02;;;;;;;1.48;0.90;;;;;;;3.82;95.66;98793.66;4889467;29;20329;-70
2021/01/12 12:20:14;;;;;;;2.50;1.25;;;;;;;3.97;95.51;98778.78;5024306;28;20201;-70
2021/01/12 12:27:16;;;;;;;;;;;;;;;;;;;;;
2021/01/12 12:30:36;;;;;;;1.00;0.90;;;;;;;4.02;94.96;98763.44;4934757;29;20246;-70
2021/01/12 12:33:33;;;;;;;1.50;1.40;;;;;;;3.97;95.53;98771.66;4934913;29;20253;-70
2021/01/12 12:40:02;;;;;;;1.92;1.13;;;;;;;3.99;97.22;98770.72;4875865;29;20209;-70
2021/01/12 12:42:29;;;;;;;1.33;1.10;;;;;;;4.02;97.45;98773.25;4895119;29;20273;-70
2021/01/12 12:44:56;;;;;;;1.17;1.08;;;;;;;4.07;96.91;98763.25;4934787;29;20565;-69
2021/01/12 12:47:27;;;;;;;1.50;0.90;;;;;;;3.98;96.91;98756.56;4934353;29;20726;-68
2021/01/12 12:49:55;;;;;;;0.80;0.70;;;;;;;3.90;97.42;98756.88;4934058;29;20598;-71
2021/01/12 12:52:48;;;;;;;2.05;1.00;;;;;;;3.91;98.49;98753.31;4981089;28;20240;-69
2021/01/12 12:55:15;;;;;;;1.80;1.40;;;;;;;4.03;98.39;98761.69;5047655;28;20253;-70
2021/01/12 12:57:41;;;;;;;0.95;0.85;;;;;;;4.09;98.68;98748.06;5053065;28;20209;-70
2021/01/12 13:00:12;;;;;;;0.82;0.68;;;;;;;3.94;97.45;98747.81;5052821;28;20248;-69
2021/01/12 13:02:58;;;;;;;1.85;1.15;;;;;;;3.89;99.47;98744.50;5053519;28;20647;-69
2021/01/12 13:06:00;;;;;;;1.85;1.05;;;;;;;3.92;100.00;98749.69;5053389;28;20649;-71
2021/01/12 13:08:27;;;;;;;2.85;1.90;;;;;;;3.76;100.00;98752.16;5044910;28;20671;-69
2021/01/12 13:11:05;;;;;;;1.65;1.00;;;;;;;3.92;100.00;98754.16;5053053;28;20216;-69
2021/01/12 13:13:32;;;;;;;0.80;0.70;;;;;;;3.99;100.00;98744.09;5052876;28;20205;-70
2021/01/12 13:16:17;;;;;;;1.20;1.10;;;;;;;4.09;99.85;98745.41;5052801;28;20202;-71
2021/01/12 13:25:01;;;;;;;1.27;1.00;;;;;;;4.05;100.00;98742.03;5049693;28;20211;-71
2021/01/12 13:27:58;;;;;;;1.48;1.38;;;;;;;4.11;100.00;98744.38;5052766;28;20202;-70
2021/01/12 13:30:49;;;;;;;1.10;1.00;;;;;;;4.06;100.00;98733.09;5006863;28;20206;-70
2021/01/12 13:33:39;;;;;;;1.15;0.93;;;;;;;4.13;99.91;98734.53;5052639;28;20260;-70
2021/01/12 13:36:58;;;;;;;1.10;1.00;;;;;;;4.19;99.81;98736.06;5043769;28;20200;-70
2021/01/12 13:39:43;;;;;;;1.10;1.00;;;;;;;4.10;100.00;98732.00;5047507;28;20615;-70
2021/01/12 13:42:28;;;;;;;2.47;1.80;;;;;;;4.10;100.00;98726.69;5052651;28;20293;-71
2021/01/12 13:52:03;;;;;;;1.40;1.23;;;;;;;4.16;100.00;98734.41;5023390;28;20565;-70
2021/01/12 13:55:21;;;;;;;;;;;;;;;;;;;;;
2021/01/12 14:45:34;;;;;;;1.42;1.20;;;;;;;4.51;100.00;98757.69;4845187;29;20566;-70
2021/01/12 14:51:55;;;;;;;2.15;1.75;;;;;;;4.52;100.00;98767.41;4844645;29;20347;-69
2021/01/12 14:57:41;;;;;;;1.38;1.27;;;;;;;4.70;100.00;98787.00;4892778;29;20204;-69
2021/01/12 15:00:30;;;;;;;1.25;1.10;;;;;;;4.73;100.00;98782.41;4932303;29;20215;-70
2021/01/12 15:22:51;;;;;;;1.65;1.55;;;;;;;4.68;100.00;98781.78;4868798;29;20611;-70
2021/01/12 15:38:54;;;;;;;1.90;1.80;;;;;;;4.63;100.00;98778.44;4837702;29;20211;-71
2021/01/12 15:41:23;;;;;;;3.05;1.30;;;;;;;4.66;100.00;98788.97;4896029;29;20697;-69
2021/01/12 15:43:50;;;;;;;1.90;1.45;;;;;;;4.70;100.00;98781.69;4913550;29;20756;-71
2021/01/12 15:46:16;;;;;;;3.10;2.00;;;;;;;4.67;100.00;98789.81;4916019;29;20240;-70
2021/01/12 15:48:51;;;;;;;1.70;1.52;;;;;;;4.68;100.00;98787.09;4916513;29;20248;-70
2021/01/12 15:51:35;;;;;;;1.27;1.17;;;;;;;4.64;100.00;98790.84;4926702;28;20274;-71
2021/01/12 15:54:04;;;;;;;1.60;1.50;;;;;;;4.71;100.00;98796.75;4935689;29;20312;-70
2021/01/12 15:56:53;;;;;;;2.45;1.80;;;;;;;4.67;100.00;98806.69;4954837;29;20302;-69
2021/01/12 15:59:54;;;;;;;;;;;;;;;;;;;;;
2021/01/12 16:02:45;;;;;;;2.10;1.50;;;;;;;4.76;100.00;98808.91;4993410;28;20227;-72
2021/01/12 16:05:18;;;;;;;2.53;1.85;;;;;;;4.81;100.00;98809.56;4993618;28;20283;-70
2021/01/12 16:08:11;;;;;;;1.98;1.77;;;;;;;4.84;100.00;98819.25;4993104;28;20215;-70
2021/01/12 16:10:51;;;;;;;1.75;1.50;;;;;;;4.79;100.00;98826.56;4993814;28;20219;-68
2021/01/12 16:23:56;;;;;;;2.85;1.95;;;;;;;4.79;100.00;98837.25;4873292;29;20230;-69
2021/01/12 16:27:01;;;;;;;3.35;2.15;;;;;;;4.86;100.00;98840.50;4934500;28;20296;-69
2021/01/12 16:29:54;;;;;;;;;;;;;;;;;;;;;
2021/01/12 16:39:31;;;;;;;3.22;2.90;;;;;;;4.69;100.00;98850.16;4888102;29;20206;-70
2021/01/12 16:45:30;;;;;;;2.78;2.28;;;;;;;4.91;100.00;98854.50;4859137;29;20212;-69
2021/01/12 16:48:00;;;;;;;2.58;2.30;;;;;;;4.92;100.00;98856.22;4859379;29;20199;-70
2021/01/12 16:51:09;;;;;;;6.68;3.00;;;;;;;4.77;100.00;98852.44;4859864;29;20216;-69
2021/01/12 16:54:24;;;;;;;3.35;2.15;;;;;;;4.83;100.00;98860.19;4857058;29;20284;-69
2021/01/12 16:57:37;;;;;;;1.88;1.73;;;;;;;4.87;100.00;98869.78;4848615;29;20657;-70
2021/01/12 17:17:20;;;;;;;4.72;3.95;;;;;;;4.57;100.00;98915.56;4921657;29;20307;-71
2021/01/12 17:23:36;;;;;;;6.88;4.95;;;;;;;4.75;100.00;98908.56;4988430;28;20237;-70
2021/01/12 17:36:13;;;;;;;;;;;;;;;;;;;;;
2021/01/12 18:17:01;;;;;;;6.20;3.60;;;;;;;5.63;100.00;98990.75;4908091;29;20276;-70
2021/01/12 18:19:49;;;;;;;5.20;4.20;;;;;;;5.72;100.00;98999.25;4948224;29;20211;-70
2021/01/12 18:28:46;;;;;;;6.15;4.22;;;;;;;5.51;99.71;99023.38;4965608;28;20211;-71
2021/01/12 18:31:49;;;;;;;;;;;;;;;;;;;;;
2021/01/12 18:34:26;;;;;;;7.50;4.03;;;;;;;5.61;97.30;99043.38;4970878;28;20209;-71
2021/01/12 18:37:36;;;;;;;6.50;4.60;;;;;;;5.61;96.46;99054.06;4970606;28;20565;-70
2021/01/12 18:40:32;;;;;;;7.82;3.97;;;;;;;5.55;96.43;99070.34;4935101;28;20259;-70
2021/01/12 18:43:11;;;;;;;4.55;3.33;;;;;;;5.54;97.04;99073.09;4970717;28;20301;-70
2021/01/12 18:46:11;;;;;;;5.35;3.80;;;;;;;5.58;95.51;99072.88;4970606;28;20206;-70
2021/01/12 18:52:12;;;;;;;4.82;3.47;;;;;;;5.52;96.71;99089.19;4952598;28;20230;-70
2021/01/12 18:55:00;;;;;;;3.78;2.90;;;;;;;5.42;96.22;99098.56;4932298;29;20243;-69
2021/01/12 19:00:38;;;;;;;2.90;2.50;;;;;;;5.43;95.21;99100.31;4927729;29;20240;-69
2021/01/12 19:03:20;;;;;;;4.55;3.03;;;;;;;5.59;94.05;99125.38;4944492;29;20342;-70
2021/01/12 19:06:20;;;;;;;;;;;;;;;;;;;;;
2021/01/12 19:15:56;;;;;;;;;;;;;;;;;;;;;
2021/01/12 19:19:06;;;;;;;5.10;3.53;;;;;;;5.01;95.95;99134.13;4934267;29;20206;-70
2021/01/12 19:22:25;;;;;;;4.53;3.03;;;;;;;5.00;95.22;99139.56;4949543;29;20590;-70
2021/01/12 19:25:11;;;;;;;5.13;3.40;;;;;;;4.71;96.52;99143.44;4921148;29;20213;-70
2021/01/12 19:31:17;;;;;;;5.28;3.50;;;;;;;4.91;96.24;99161.28;4861383;29;20211;-69
2021/01/12 19:34:01;;;;;;;5.68;3.53;;;;;;;4.74;95.89;99168.16;4918889;28;20248;-68
2021/01/12 19:36:53;;;;;;;6.38;3.58;;;;;;;4.51;97.07;99170.91;4974628;28;20304;-70
2021/01/12 19:39:56;;;;;;;4.70;3.20;;;;;;;4.41;98.04;99180.19;4974072;28;20265;-69
2021/01/12 19:52:10;;;;;;;5.47;3.58;;;;;;;3.58;100.00;99202.84;4956488;28;20638;-70
2021/01/12 19:55:15;;;;;;;3.60;2.70;;;;;;;3.82;99.70;99222.41;4974821;28;20254;-71
2021/01/12 19:58:14;;;;;;;4.57;3.35;;;;;;;3.94;94.24;99227.28;4946455;28;20591;-70
2021/01/12 20:01:04;;;;;;;;;;;;;;;;;;;;;
2021/01/12 20:09:46;;;;;;;5.57;3.72;;;;;;;4.07;92.09;99261.44;4939369;29;20557;-70
2021/01/12 20:15:35;;;;;;;3.03;2.75;;;;;;;3.87;91.88;99255.06;4947133;29;20214;-69
2021/01/12 20:28:36;;;;;;;2.97;2.30;;;;;;;3.96;87.31;99272.50;4951757;29;20206;-70
2021/01/12 20:35:39;;;;;;;5.25;3.40;;;;;;;3.70;87.20;99286.75;4933520;29;20263;-69
2021/01/12 20:57:02;;;;;;;1.90;1.80;;;;;;;3.17;89.23;99326.69;4952454;29;20641;-71
2021/01/12 20:59:28;;;;;;;2.70;2.50;;;;;;;3.09;89.27;99332.25;4954412;29;20219;-69
2021/01/12 21:01:55;;;;;;;2.30;2.10;;;;;;;3.21;88.26;99346.94;4954989;29;20243;-70
2021/01/12 21:04:22;;;;;;;3.05;1.65;;;;;;;3.22;88.09;99343.38;4954464;29;20267;-71
2021/01/12 21:06:49;;;;;;;2.80;2.30;;;;;;;3.20;87.91;99348.75;4954314;29;20200;-70
2021/01/12 21:09:15;;;;;;;2.95;1.85;;;;;;;3.21;87.69;99349.59;4954676;29;20219;-70
2021/01/12 21:11:43;;;;;;;2.13;1.92;;;;;;;3.17;87.69;99354.16;4954766;29;20336;-70
2021/01/12 21:14:10;;;;;;;3.10;2.80;;;;;;;3.16;88.18;99356.88;4954978;29;20490;-69
2021/01/12 21:16:39;;;;;;;3.05;2.10;;;;;;;3.13;87.96;99352.53;5009096;28;20217;-71
2021/01/12 21:19:06;;;;;;;3.17;2.63;;;;;;;3.09;88.25;99370.34;5014946;28;20209;-70
2021/01/12 21:21:34;;;;;;;4.97;2.53;;;;;;;3.02;88.29;99365.28;5017768;28;20228;-70
2021/01/12 21:24:01;;;;;;;4.22;2.30;;;;;;;3.13;88.60;99382.66;5034124;28;20226;-70
2021/01/12 21:26:38;;;;;;;4.70;2.20;;;;;;;3.22;88.38;99375.31;5034525;28;20660;-71
2021/01/12 21:29:05;;;;;;;3.50;2.75;;;;;;;3.17;88.79;99382.56;5034151;28;20196;-71